createdAt,value
2022-12-18T00:01:29.946Z,94369.56
2022-12-18T00:03:57.298Z,94376.41
2022-12-18T00:06:25.367Z,94374.72
2022-12-18T00:08:53.237Z,94377.00
2022-12-18T00:11:22.047Z,94381.13
2022-12-18T00:13:50.856Z,94387.31
2022-12-18T00:16:23.603Z,94387.69
2022-12-18T00:18:52.326Z,94387.25
2022-12-18T00:21:20.140Z,94394.91
2022-12-18T00:23:48.561Z,94403.50
2022-12-18T00:26:17.765Z,94408.06
2022-12-18T00:28:45.284Z,94407.34
2022-12-18T00:31:15.083Z,94409.19
2022-12-18T00:33:42.656Z,94417.47
2022-12-18T00:36:15.455Z,94409.53
2022-12-18T00:38:42.774Z,94411.44
2022-12-18T00:41:10.649Z,94410.47
2022-12-18T00:43:38.855Z,94404.53
2022-12-18T00:46:06.185Z,94416.31
2022-12-18T00:48:33.727Z,94416.19
2022-12-18T00:51:00.566Z,94416.31
2022-12-18T00:53:27.326Z,94419.03
2022-12-18T00:55:54.078Z,94423.13
2022-12-18T00:58:20.836Z,94426.09
2022-12-18T01:00:47.653Z,94422.16
2022-12-18T01:03:15.431Z,94432.53
2022-12-18T01:05:44.498Z,94430.91
2022-12-18T01:08:12.094Z,94444.47
2022-12-18T01:10:41.882Z,94446.69
2022-12-18T01:13:08.656Z,94439.72
2022-12-18T01:15:36.046Z,94450.31
2022-12-18T01:18:02.954Z,94451.69
2022-12-18T01:20:29.710Z,94444.03
2022-12-18T01:22:56.470Z,94447.84
2022-12-18T01:25:23.277Z,94445.31
2022-12-18T01:27:51.203Z,94453.31
2022-12-18T01:30:17.972Z,94451.59
2022-12-18T01:32:45.795Z,94449.16
2022-12-18T01:35:12.585Z,94463.66
2022-12-18T01:37:39.354Z,94470.03
2022-12-18T01:40:06.910Z,94467.72
2022-12-18T01:42:34.189Z,94469.22
2022-12-18T01:45:00.944Z,94472.09
2022-12-18T01:47:40.914Z,94471.97
2022-12-18T01:50:37.870Z,94472.81
2022-12-18T01:53:11.690Z,94469.53
2022-12-18T01:55:48.311Z,94474.94
2022-12-18T01:58:15.449Z,94477.16
2022-12-18T02:00:42.496Z,94475.41
2022-12-18T02:03:09.789Z,94481.75
2022-12-18T02:05:47.401Z,94486.75
2022-12-18T02:08:23.437Z,94480.94
2022-12-18T02:10:56.947Z,94489.41
2022-12-18T02:13:53.672Z,94490.22
2022-12-18T02:16:44.884Z,94494.28
2022-12-18T02:19:34.830Z,94492.78
2022-12-18T02:22:04.265Z,94490.47
2022-12-18T02:24:42.697Z,94493.59
2022-12-18T02:27:10.661Z,94493.25
2022-12-18T02:29:58.220Z,94501.28
2022-12-18T02:32:38.761Z,94496.00
2022-12-18T02:35:07.796Z,94500.75
2022-12-18T02:37:35.953Z,94497.63
2022-12-18T02:40:06.669Z,94498.84
2022-12-18T02:42:35.827Z,94500.09
2022-12-18T02:45:05.531Z,94516.09
2022-12-18T02:47:35.281Z,94504.28
2022-12-18T02:50:39.372Z,94503.34
2022-12-18T02:53:19.228Z,94501.25
2022-12-18T02:55:46.934Z,94503.91
2022-12-18T02:58:28.907Z,94506.28
2022-12-18T03:01:24.108Z,94504.91
2022-12-18T03:04:01.165Z,94511.97
2022-12-18T03:06:31.737Z,94515.75
2022-12-18T03:09:01.514Z,94522.94
2022-12-18T03:11:50.968Z,94528.72
2022-12-18T03:14:19.554Z,94519.47
2022-12-18T03:16:51.103Z,94527.22
2022-12-18T03:19:19.860Z,94524.75
2022-12-18T03:21:57.605Z,94529.44
2022-12-18T03:24:28.001Z,94527.69
2022-12-18T03:26:58.790Z,94525.81
2022-12-18T03:29:28.998Z,94525.66
2022-12-18T03:32:04.064Z,94536.00
2022-12-18T03:34:35.068Z,94542.13
2022-12-18T03:37:04.626Z,94544.31
2022-12-18T03:39:33.200Z,94547.03
2022-12-18T03:42:26.621Z,94556.75
2022-12-18T03:45:24.195Z,94562.22
2022-12-18T03:47:56.951Z,94564.44
2022-12-18T03:50:38.474Z,94553.03
2022-12-18T03:53:12.528Z,94559.69
2022-12-18T03:55:39.916Z,94571.00
2022-12-18T03:58:08.945Z,94577.84
2022-12-18T04:00:53.637Z,94574.16
2022-12-18T04:03:23.950Z,94572.63
2022-12-18T04:05:54.220Z,94576.50
2022-12-18T04:08:23.041Z,94575.22
2022-12-18T04:11:00.757Z,94581.63
2022-12-18T04:13:36.767Z,94585.50
2022-12-18T04:16:07.804Z,94595.50
2022-12-18T04:18:35.478Z,94602.91
2022-12-18T04:21:03.528Z,94603.03
2022-12-18T04:23:30.446Z,94601.50
2022-12-18T04:25:59.064Z,94606.19
2022-12-18T04:28:51.060Z,94605.47
2022-12-18T04:31:17.963Z,94603.63
2022-12-18T04:33:44.916Z,94609.13
2022-12-18T04:36:13.818Z,94618.72
2022-12-18T04:38:41.422Z,94622.47
2022-12-18T04:41:15.159Z,94621.56
2022-12-18T04:43:43.777Z,94627.88
2022-12-18T04:46:10.920Z,94635.91
2022-12-18T04:48:38.164Z,94637.03
2022-12-18T04:51:06.068Z,94634.78
2022-12-18T04:53:33.286Z,94633.88
2022-12-18T04:56:13.945Z,94634.78
2022-12-18T04:58:42.003Z,94649.03
2022-12-18T05:01:09.314Z,94649.03
2022-12-18T05:03:37.215Z,94644.06
2022-12-18T05:06:05.051Z,94642.59
2022-12-18T05:08:31.998Z,94650.97
2022-12-18T05:11:07.839Z,94656.28
2022-12-18T05:13:35.327Z,94654.84
2022-12-18T05:16:02.567Z,94662.19
2022-12-18T05:18:29.521Z,94663.69
2022-12-18T05:20:56.340Z,94665.13
2022-12-18T05:23:24.468Z,94675.81
2022-12-18T05:25:56.305Z,94678.06
2022-12-18T05:28:24.307Z,94676.72
2022-12-18T05:30:52.268Z,94687.44
2022-12-18T05:33:19.933Z,94695.50
2022-12-18T05:35:54.757Z,94696.53
2022-12-18T05:38:23.387Z,94691.00
2022-12-18T05:40:51.521Z,94708.53
2022-12-18T05:43:21.328Z,94710.78
2022-12-18T05:45:49.180Z,94711.81
2022-12-18T05:48:16.639Z,94708.31
2022-12-18T05:50:48.174Z,94703.41
2022-12-18T05:53:16.967Z,94698.94
2022-12-18T05:55:44.753Z,94711.84
2022-12-18T05:58:12.627Z,94716.16
2022-12-18T06:00:41.040Z,94729.88
2022-12-18T06:03:09.678Z,94719.06
2022-12-18T06:05:38.279Z,94720.38
2022-12-18T06:08:05.436Z,94723.94
2022-12-18T06:10:32.367Z,94726.34
2022-12-18T06:13:18.248Z,94728.91
2022-12-18T06:15:45.000Z,94732.19
2022-12-18T06:18:11.736Z,94738.28
2022-12-18T06:20:40.700Z,94734.19
2022-12-18T06:23:07.597Z,94733.59
2022-12-18T06:25:34.369Z,94737.63
2022-12-18T06:28:01.156Z,94739.53
2022-12-18T06:30:27.898Z,94739.25
2022-12-18T06:32:56.734Z,94745.16
2022-12-18T06:35:24.167Z,94743.59
2022-12-18T06:37:50.952Z,94750.50
2022-12-18T06:40:18.099Z,94750.41
2022-12-18T06:42:44.987Z,94751.25
2022-12-18T06:45:12.619Z,94761.50
2022-12-18T06:47:39.516Z,94755.50
2022-12-18T06:50:06.919Z,94767.13
2022-12-18T06:52:34.670Z,94759.50
2022-12-18T06:55:01.874Z,94767.66
2022-12-18T06:57:28.591Z,94778.03
2022-12-18T06:59:55.461Z,94775.69
2022-12-18T07:02:22.321Z,94781.47
2022-12-18T07:04:52.290Z,94781.09
2022-12-18T07:07:19.328Z,94783.13
2022-12-18T07:09:46.085Z,94787.84
2022-12-18T07:12:12.934Z,94782.16
2022-12-18T07:14:39.875Z,94787.06
2022-12-18T07:17:06.802Z,94795.06
2022-12-18T07:19:34.087Z,94785.69
2022-12-18T07:22:01.507Z,94795.72
2022-12-18T07:24:29.468Z,94777.69
2022-12-18T07:26:56.301Z,94796.81
2022-12-18T07:29:23.121Z,94798.13
2022-12-18T07:31:50.242Z,94798.34
2022-12-18T07:34:17.239Z,94801.34
2022-12-18T07:36:44.081Z,94804.03
2022-12-18T07:39:12.729Z,94805.06
2022-12-18T07:41:45.183Z,94817.97
2022-12-18T07:44:16.153Z,94813.81
2022-12-18T07:46:42.965Z,94808.44
2022-12-18T07:49:09.692Z,94817.72
2022-12-18T07:51:36.540Z,94814.16
2022-12-18T07:54:03.404Z,94818.31
2022-12-18T07:56:31.427Z,94818.75
2022-12-18T07:58:59.312Z,94819.69
2022-12-18T08:01:26.367Z,94828.38
2022-12-18T08:03:53.331Z,94834.31
2022-12-18T08:06:23.960Z,94835.66
2022-12-18T08:08:55.446Z,94836.31
2022-12-18T08:11:23.530Z,94843.94
2022-12-18T08:13:50.281Z,94844.72
2022-12-18T08:16:17.228Z,94861.72
2022-12-18T08:18:44.107Z,94857.25
2022-12-18T08:21:13.953Z,94868.13
2022-12-18T08:23:43.229Z,94864.66
2022-12-18T08:26:11.595Z,94874.31
2022-12-18T08:28:38.478Z,94872.06
2022-12-18T08:31:05.659Z,94877.91
2022-12-18T08:33:33.588Z,94885.34
2022-12-18T08:36:01.192Z,94887.78
2022-12-18T08:38:28.382Z,94879.53
2022-12-18T08:41:06.488Z,94887.72
2022-12-18T08:43:51.875Z,94878.59
2022-12-18T08:46:19.881Z,94888.94
2022-12-18T08:48:47.035Z,94894.84
2022-12-18T08:51:13.956Z,94892.03
2022-12-18T08:53:41.151Z,94896.13
2022-12-18T08:56:08.735Z,94887.97
2022-12-18T08:58:35.552Z,94884.38
2022-12-18T09:01:09.941Z,94891.13
2022-12-18T09:03:37.498Z,94885.13
2022-12-18T09:06:04.945Z,94885.44
2022-12-18T09:08:31.729Z,94886.16
2022-12-18T09:11:01.580Z,94884.50
2022-12-18T09:13:28.565Z,94880.78
2022-12-18T09:15:56.615Z,94879.19
2022-12-18T09:18:24.943Z,94881.22
2022-12-18T09:20:53.557Z,94888.41
2022-12-18T09:23:20.908Z,94885.28
2022-12-18T09:25:48.014Z,94886.41
2022-12-18T09:28:18.875Z,94891.50
2022-12-18T09:30:48.708Z,94885.16
2022-12-18T09:33:16.374Z,94884.88
2022-12-18T09:35:44.726Z,94886.34
2022-12-18T09:38:18.963Z,94889.97
2022-12-18T09:40:51.431Z,94892.22
2022-12-18T09:43:25.802Z,94893.38
2022-12-18T09:45:56.455Z,94893.81
2022-12-18T09:48:29.399Z,94895.81
2022-12-18T09:51:01.191Z,94894.88
2022-12-18T09:53:29.570Z,94890.66
2022-12-18T09:55:57.621Z,94886.53
2022-12-18T09:58:41.219Z,94893.06
2022-12-18T10:01:19.339Z,94884.31
2022-12-18T10:03:46.226Z,94875.91
2022-12-18T10:06:18.494Z,94881.31
2022-12-18T10:08:52.810Z,94877.66
2022-12-18T10:11:50.817Z,94883.06
2022-12-18T10:14:42.642Z,94880.72
2022-12-18T10:17:16.386Z,94881.56
2022-12-18T10:20:19.806Z,94881.75
2022-12-18T10:22:54.036Z,94888.81
2022-12-18T10:25:20.875Z,94892.78
2022-12-18T10:27:48.059Z,94886.44
2022-12-18T10:30:17.360Z,94897.06
2022-12-18T10:32:44.401Z,94897.13
2022-12-18T10:35:18.950Z,94893.16
2022-12-18T10:38:08.248Z,94891.53
2022-12-18T10:40:48.683Z,94892.53
2022-12-18T10:43:16.759Z,94882.88
2022-12-18T10:46:03.108Z,94887.97
2022-12-18T10:48:31.462Z,94887.75
2022-12-18T10:51:14.020Z,94891.72
2022-12-18T10:53:43.038Z,94886.41
2022-12-18T10:56:09.810Z,94879.06
2022-12-18T10:58:38.450Z,94883.25
2022-12-18T11:01:14.310Z,94877.06
2022-12-18T11:03:45.413Z,94877.56
2022-12-18T11:06:12.145Z,94882.56
2022-12-18T11:08:40.088Z,94879.13
2022-12-18T11:11:17.320Z,94883.75
2022-12-18T11:14:13.622Z,94887.34
2022-12-18T11:17:25.008Z,94881.63
2022-12-18T11:19:35.833Z,94875.56
2022-12-18T11:22:05.247Z,94890.25
2022-12-18T11:24:36.775Z,94892.63
2022-12-18T11:27:05.724Z,94882.13
2022-12-18T11:29:33.889Z,94879.38
2022-12-18T11:32:16.098Z,94880.56
2022-12-18T11:34:49.425Z,94888.66
2022-12-18T11:37:20.195Z,94888.28
2022-12-18T11:39:51.684Z,94886.94
2022-12-18T11:42:22.830Z,94891.50
2022-12-18T11:44:53.002Z,94892.22
2022-12-18T11:47:26.870Z,94898.41
2022-12-18T11:49:54.179Z,94898.22
2022-12-18T11:52:25.171Z,94888.78
2022-12-18T11:54:53.980Z,94896.59
2022-12-18T11:57:40.815Z,94885.09
2022-12-18T12:00:16.019Z,94884.59
2022-12-18T12:02:57.950Z,94885.16
2022-12-18T12:05:43.155Z,94887.78
2022-12-18T12:08:12.909Z,94889.41
2022-12-18T12:10:46.551Z,94895.13
2022-12-18T12:13:48.063Z,94891.59
2022-12-18T12:16:42.952Z,94890.28
2022-12-18T12:19:28.097Z,94885.31
2022-12-18T12:22:03.533Z,94887.03
2022-12-18T12:24:33.198Z,94891.31
2022-12-18T12:27:17.250Z,94887.13
2022-12-18T12:29:52.186Z,94887.88
2022-12-18T12:32:37.105Z,94891.03
2022-12-18T12:35:15.603Z,94892.31
2022-12-18T12:37:59.072Z,94894.13
2022-12-18T12:43:21.098Z,94908.28
2022-12-18T12:46:10.993Z,94901.66
2022-12-18T12:49:05.836Z,94897.56
2022-12-18T12:51:38.845Z,94904.38
2022-12-18T12:54:19.101Z,94909.00
2022-12-18T12:57:10.295Z,94898.25
2022-12-18T12:59:41.163Z,94913.63
2022-12-18T13:02:37.071Z,94903.44
2022-12-18T13:05:04.629Z,94918.72
2022-12-18T13:07:48.731Z,94921.00
2022-12-18T13:10:20.848Z,94921.53
2022-12-18T13:13:00.066Z,94933.09
2022-12-18T13:15:40.868Z,94933.28
2022-12-18T13:18:10.317Z,94938.47
2022-12-18T13:21:05.490Z,94939.63
2022-12-18T13:23:35.316Z,94940.94
2022-12-18T13:26:11.594Z,94942.72
2022-12-18T13:28:47.935Z,94953.66
2022-12-18T13:31:16.573Z,94943.47
2022-12-18T13:36:34.585Z,94948.72
2022-12-18T13:39:19.707Z,94940.81
2022-12-18T13:41:55.486Z,94950.72
2022-12-18T13:44:22.502Z,94951.72
2022-12-18T13:46:51.696Z,94957.66
2022-12-18T13:49:24.620Z,94961.91
2022-12-18T13:51:53.864Z,94960.28
2022-12-18T13:54:43.850Z,94967.84
2022-12-18T13:57:29.055Z,94972.75
2022-12-18T13:59:56.903Z,94969.84
2022-12-18T14:02:26.341Z,94970.66
2022-12-18T14:04:54.051Z,94965.56
2022-12-18T14:07:24.139Z,94972.72
2022-12-18T14:10:12.098Z,94971.81
2022-12-18T14:13:00.888Z,94967.72
2022-12-18T14:15:54.836Z,94975.47
2022-12-18T14:18:22.161Z,94986.06
2022-12-18T14:20:52.840Z,94987.91
2022-12-18T14:23:33.784Z,94994.63
2022-12-18T14:26:06.257Z,94990.09
2022-12-18T14:28:33.290Z,94990.81
2022-12-18T14:31:00.285Z,94990.72
2022-12-18T14:33:28.609Z,94986.53
2022-12-18T14:36:01.672Z,94986.34
2022-12-18T14:38:39.583Z,94987.44
2022-12-18T14:41:14.487Z,94984.34
2022-12-18T14:43:44.255Z,94988.75
2022-12-18T14:46:37.022Z,94988.28
2022-12-18T14:49:06.902Z,94992.47
2022-12-18T14:51:39.709Z,94989.53
2022-12-18T14:54:16.329Z,94990.28
2022-12-18T14:57:04.455Z,94987.66
2022-12-18T14:59:31.247Z,94995.19
2022-12-18T15:02:12.510Z,94995.91
2022-12-18T15:04:41.713Z,94998.47
2022-12-18T15:07:19.592Z,95000.72
2022-12-18T15:10:01.451Z,94999.81
2022-12-18T15:12:38.498Z,95002.38
2022-12-18T15:15:06.667Z,94995.00
2022-12-18T15:17:33.519Z,95001.56
2022-12-18T15:20:03.727Z,95005.00
2022-12-18T15:22:33.826Z,95004.84
2022-12-18T15:25:01.199Z,95011.81
2022-12-18T15:27:39.084Z,95008.44
2022-12-18T15:30:09.033Z,95019.19
2022-12-18T15:32:37.327Z,95025.91
2022-12-18T15:35:25.045Z,95026.47
2022-12-18T15:37:52.797Z,95035.81
2022-12-18T15:40:25.022Z,95034.19
2022-12-18T15:43:13.237Z,95029.03
2022-12-18T15:45:40.146Z,95039.28
2022-12-18T15:48:21.917Z,95046.38
2022-12-18T15:50:48.768Z,95039.91
2022-12-18T15:53:15.556Z,95042.91
2022-12-18T15:56:01.331Z,95047.81
2022-12-18T15:58:28.237Z,95048.19
2022-12-18T16:00:57.152Z,95054.19
2022-12-18T16:03:23.896Z,95057.06
2022-12-18T16:05:51.418Z,95057.41
2022-12-18T16:08:18.238Z,95059.50
2022-12-18T16:10:45.002Z,95064.88
2022-12-18T16:13:13.179Z,95068.88
2022-12-18T16:15:40.001Z,95073.41
2022-12-18T16:18:06.804Z,95078.56
2022-12-18T16:20:33.636Z,95077.09
2022-12-18T16:23:00.473Z,95078.00
2022-12-18T16:25:29.675Z,95078.19
2022-12-18T16:27:57.097Z,95068.78
2022-12-18T16:30:28.238Z,95072.88
2022-12-18T16:32:56.297Z,95068.13
2022-12-18T16:35:23.890Z,95075.19
2022-12-18T16:37:50.717Z,95078.38
2022-12-18T16:40:18.224Z,95088.06
2022-12-18T16:42:46.145Z,95096.09
2022-12-18T16:45:15.629Z,95101.09
2022-12-18T16:47:42.524Z,95096.84
2022-12-18T16:50:10.164Z,95097.91
2022-12-18T16:52:37.065Z,95107.19
2022-12-18T16:55:04.315Z,95107.44
2022-12-18T16:57:31.180Z,95114.81
2022-12-18T17:00:04.439Z,95119.31
2022-12-18T17:02:32.596Z,95123.59
2022-12-18T17:04:59.829Z,95126.94
2022-12-18T17:07:28.331Z,95127.34
2022-12-18T17:09:55.849Z,95128.34
2022-12-18T17:12:23.067Z,95134.97
2022-12-18T17:14:49.953Z,95137.28
2022-12-18T17:17:22.582Z,95150.38
2022-12-18T17:19:51.901Z,95151.75
2022-12-18T17:22:19.645Z,95147.66
2022-12-18T17:24:47.138Z,95150.09
2022-12-18T17:27:14.125Z,95156.25
2022-12-18T17:29:46.812Z,95160.38
2022-12-18T17:32:15.598Z,95153.78
2022-12-18T17:34:42.308Z,95160.25
2022-12-18T17:37:09.485Z,95163.72
2022-12-18T17:39:36.531Z,95157.91
2022-12-18T17:42:03.935Z,95158.72
2022-12-18T17:44:31.974Z,95159.78
2022-12-18T17:46:58.873Z,95164.16
2022-12-18T17:49:25.728Z,95161.72
2022-12-18T17:51:52.647Z,95158.19
2022-12-18T17:54:19.739Z,95156.41
2022-12-18T17:56:46.500Z,95147.72
2022-12-18T17:59:13.246Z,95153.22
2022-12-18T18:01:44.482Z,95157.47
2022-12-18T18:04:12.696Z,95146.97
2022-12-18T18:06:39.695Z,95146.84
2022-12-18T18:09:13.420Z,95151.91
2022-12-18T18:12:02.703Z,95153.06
2022-12-18T18:14:29.897Z,95145.25
2022-12-18T18:16:56.879Z,95156.19
2022-12-18T18:19:25.992Z,95153.31
2022-12-18T18:21:54.617Z,95163.63
2022-12-18T18:24:23.652Z,95163.31
2022-12-18T18:26:50.903Z,95162.19
2022-12-18T18:29:20.894Z,95165.63
2022-12-18T18:31:48.564Z,95162.72
2022-12-18T18:34:23.018Z,95165.34
2022-12-18T18:36:49.836Z,95166.09
2022-12-18T18:39:16.704Z,95169.03
2022-12-18T18:41:47.179Z,95180.03
2022-12-18T18:44:15.124Z,95172.34
2022-12-18T18:46:41.969Z,95178.91
2022-12-18T18:49:09.524Z,95187.59
2022-12-18T18:51:36.254Z,95191.50
2022-12-18T18:54:03.111Z,95194.28
2022-12-18T18:59:18.438Z,95197.06
2022-12-18T19:01:45.551Z,95194.56
2022-12-18T19:04:12.513Z,95199.66
2022-12-18T19:06:39.423Z,95194.81
2022-12-18T19:09:06.763Z,95201.59
2022-12-18T19:11:52.076Z,95207.00
2022-12-18T19:14:18.958Z,95210.44
2022-12-18T19:16:45.868Z,95213.06
2022-12-18T19:19:13.335Z,95220.97
2022-12-18T19:21:40.845Z,95213.28
2022-12-18T19:24:08.034Z,95212.09
2022-12-18T19:26:37.754Z,95215.47
2022-12-18T19:29:09.112Z,95218.97
2022-12-18T19:31:37.313Z,95218.50
2022-12-18T19:34:06.757Z,95215.91
2022-12-18T19:36:35.319Z,95217.38
2022-12-18T19:39:03.033Z,95215.84
2022-12-18T19:41:31.600Z,95221.50
2022-12-18T19:44:02.241Z,95220.44
2022-12-18T19:46:35.049Z,95225.28
2022-12-18T19:49:02.158Z,95235.69
2022-12-18T19:51:30.914Z,95232.78
2022-12-18T19:54:00.511Z,95249.94
2022-12-18T19:56:31.035Z,95242.56
2022-12-18T19:58:58.253Z,95255.56
2022-12-18T20:01:26.639Z,95259.19
2022-12-18T20:03:54.534Z,95261.25
2022-12-18T20:06:29.982Z,95252.25
2022-12-18T20:09:00.640Z,95258.06
2022-12-18T20:11:29.883Z,95257.78
2022-12-18T20:13:57.274Z,95256.91
2022-12-18T20:16:24.117Z,95260.47
2022-12-18T20:18:50.964Z,95264.94
2022-12-18T20:21:19.207Z,95265.06
2022-12-18T20:23:46.146Z,95267.09
2022-12-18T20:26:13.114Z,95266.09
2022-12-18T20:28:40.515Z,95254.97
2022-12-18T20:31:13.402Z,95258.25
2022-12-18T20:33:42.178Z,95267.59
2022-12-18T20:36:13.708Z,95273.81
2022-12-18T20:38:41.399Z,95276.28
2022-12-18T20:41:16.447Z,95278.69
2022-12-18T20:43:44.300Z,95280.50
2022-12-18T20:46:13.366Z,95298.34
2022-12-18T20:48:40.557Z,95298.72
2022-12-18T20:51:10.298Z,95302.53
2022-12-18T20:53:37.728Z,95303.00
2022-12-18T20:56:09.707Z,95307.50
2022-12-18T20:58:36.585Z,95306.81
2022-12-18T21:01:20.384Z,95297.78
2022-12-18T21:03:47.785Z,95303.03
2022-12-18T21:06:15.797Z,95304.63
2022-12-18T21:08:43.205Z,95307.28
2022-12-18T21:11:40.876Z,95304.81
2022-12-18T21:14:13.866Z,95296.41
2022-12-18T21:16:40.818Z,95292.84
2022-12-18T21:19:07.631Z,95295.25
2022-12-18T21:21:35.867Z,95300.75
2022-12-18T21:24:06.720Z,95308.69
2022-12-18T21:26:41.851Z,95295.97
2022-12-18T21:29:22.796Z,95299.25
2022-12-18T21:31:50.854Z,95294.06
2022-12-18T21:34:26.503Z,95297.28
2022-12-18T21:36:54.064Z,95295.63
2022-12-18T21:39:21.742Z,95285.38
2022-12-18T21:42:08.432Z,95292.09
2022-12-18T21:44:41.726Z,95299.69
2022-12-18T21:47:20.913Z,95303.25
2022-12-18T21:49:51.954Z,95301.53
2022-12-18T21:52:18.812Z,95300.66
2022-12-18T21:54:45.566Z,95296.41
2022-12-18T21:57:13.554Z,95297.34
2022-12-18T21:59:42.607Z,95297.28
2022-12-18T22:02:16.608Z,95296.53
2022-12-18T22:04:44.581Z,95296.63
2022-12-18T22:07:12.153Z,95300.13
2022-12-18T22:09:39.413Z,95303.59
2022-12-18T22:12:06.857Z,95309.19
2022-12-18T22:14:33.627Z,95310.28
2022-12-18T22:17:01.216Z,95311.19
2022-12-18T22:19:29.304Z,95315.72
2022-12-18T22:21:56.140Z,95318.44
2022-12-18T22:24:25.055Z,95318.53
2022-12-18T22:26:58.609Z,95315.16
2022-12-18T22:29:47.752Z,95304.09
2022-12-18T22:32:30.490Z,95295.66
2022-12-18T22:35:05.851Z,95293.66
2022-12-18T22:37:34.307Z,95296.28
2022-12-18T22:40:03.137Z,95297.25
2022-12-18T22:42:31.086Z,95290.22
2022-12-18T22:44:57.869Z,95293.56
2022-12-18T22:47:29.371Z,95289.91
2022-12-18T22:49:57.017Z,95288.94
2022-12-18T22:52:24.826Z,95282.56
2022-12-18T22:54:53.316Z,95286.13
2022-12-18T22:57:21.716Z,95279.84
2022-12-18T22:59:49.419Z,95281.28
2022-12-18T23:02:17.714Z,95276.72
2022-12-18T23:04:45.170Z,95278.78
2022-12-18T23:07:12.041Z,95281.13
2022-12-18T23:09:39.947Z,95282.78
2022-12-18T23:12:07.047Z,95280.09
2022-12-18T23:14:33.884Z,95282.56
2022-12-18T23:17:00.673Z,95286.09
2022-12-18T23:19:27.461Z,95297.03
2022-12-18T23:21:54.867Z,95285.78
2022-12-18T23:24:27.307Z,95297.91
2022-12-18T23:26:55.602Z,95294.00
2022-12-18T23:29:22.366Z,95293.31
2022-12-18T23:31:49.174Z,95303.44
2022-12-18T23:34:15.935Z,95298.03
2022-12-18T23:36:46.285Z,95294.00
2022-12-18T23:39:24.361Z,95298.88
2022-12-18T23:42:00.715Z,95299.41
2022-12-18T23:44:28.017Z,95297.50
2022-12-18T23:46:55.533Z,95297.00
2022-12-18T23:49:22.468Z,95297.31
2022-12-18T23:51:49.552Z,95296.94
2022-12-18T23:54:16.382Z,95307.25
2022-12-18T23:56:43.328Z,95308.94
2022-12-18T23:59:10.308Z,95317.50
